sensor_id;sensor_type;location;lat;lon;timestamp;P1;P2;P0
55686;PMS5003;41911;52.362;4.978;2022-09-13T00:00:24;28.0;28.0;
55686;PMS5003;41911;52.362;4.978;2022-09-13T00:00:55;29.0;27.0;
55686;PMS5003;41911;52.362;4.978;2022-09-13T00:01:27;23.0;23.0;
55686;PMS5003;41911;52.362;4.978;2022-09-13T00:01:58;25.0;25.0;
55686;PMS5003;41911;52.362;4.978;2022-09-13T00:02:32;31.0;31.0;
55686;PMS5003;41911;52.362;4.978;2022-09-13T00:03:03;34.0;31.0;
55686;PMS5003;41911;52.362;4.978;2022-09-13T00:03:34;25.0;25.0;
55686;PMS5003;41911;52.362;4.978;2022-09-13T00:04:05;32.0;32.0;
55686;PMS5003;41911;52.362;4.978;2022-09-13T00:04:37;31.0;30.0;
55686;PMS5003;41911;52.362;4.978;2022-09-13T00:05:08;32.0;32.0;
55686;PMS5003;41911;52.362;4.978;2022-09-13T00:05:39;29.0;29.0;
55686;PMS5003;41911;52.362;4.978;2022-09-13T00:06:11;30.0;30.0;
55686;PMS5003;41911;52.362;4.978;2022-09-13T00:06:43;32.0;31.0;
55686;PMS5003;41911;52.362;4.978;2022-09-13T00:07:15;34.0;32.0;
55686;PMS5003;41911;52.362;4.978;2022-09-13T00:07:45;31.0;31.0;
55686;PMS5003;41911;52.362;4.978;2022-09-13T00:08:17;30.0;29.0;
55686;PMS5003;41911;52.362;4.978;2022-09-13T00:08:49;33.0;29.0;
55686;PMS5003;41911;52.362;4.978;2022-09-13T00:09:20;33.0;33.0;
55686;PMS5003;41911;52.362;4.978;2022-09-13T00:09:51;26.0;26.0;
55686;PMS5003;41911;52.362;4.978;2022-09-13T00:10:24;32.0;31.0;
55686;PMS5003;41911;52.362;4.978;2022-09-13T00:10:55;26.0;25.0;
55686;PMS5003;41911;52.362;4.978;2022-09-13T00:11:27;29.0;28.0;
55686;PMS5003;41911;52.362;4.978;2022-09-13T00:11:59;31.0;29.0;
55686;PMS5003;41911;52.362;4.978;2022-09-13T00:12:30;28.0;27.0;
55686;PMS5003;41911;52.362;4.978;2022-09-13T00:13:01;30.0;29.0;
55686;PMS5003;41911;52.362;4.978;2022-09-13T00:13:33;26.0;25.0;
55686;PMS5003;41911;52.362;4.978;2022-09-13T00:14:04;35.0;34.0;
55686;PMS5003;41911;52.362;4.978;2022-09-13T00:14:35;33.0;33.0;
55686;PMS5003;41911;52.362;4.978;2022-09-13T00:15:06;32.0;31.0;
55686;PMS5003;41911;52.362;4.978;2022-09-13T00:15:41;31.0;30.0;
55686;PMS5003;41911;52.362;4.978;2022-09-13T00:16:15;31.0;31.0;
55686;PMS5003;41911;52.362;4.978;2022-09-13T00:16:49;34.0;33.0;
55686;PMS5003;41911;52.362;4.978;2022-09-13T00:17:20;31.0;29.0;
55686;PMS5003;41911;52.362;4.978;2022-09-13T00:17:51;29.0;28.0;
55686;PMS5003;41911;52.362;4.978;2022-09-13T00:18:22;29.0;27.0;
55686;PMS5003;41911;52.362;4.978;2022-09-13T00:18:54;31.0;30.0;
55686;PMS5003;41911;52.362;4.978;2022-09-13T00:19:25;35.0;32.0;
55686;PMS5003;41911;52.362;4.978;2022-09-13T00:19:56;25.0;24.0;
55686;PMS5003;41911;52.362;4.978;2022-09-13T00:20:32;36.0;34.0;
55686;PMS5003;41911;52.362;4.978;2022-09-13T00:21:04;30.0;30.0;
55686;PMS5003;41911;52.362;4.978;2022-09-13T00:21:47;28.0;28.0;
55686;PMS5003;41911;52.362;4.978;2022-09-13T00:22:18;30.0;30.0;
55686;PMS5003;41911;52.362;4.978;2022-09-13T00:22:49;33.0;31.0;
55686;PMS5003;41911;52.362;4.978;2022-09-13T00:23:20;29.0;28.0;
55686;PMS5003;41911;52.362;4.978;2022-09-13T00:23:52;28.0;27.0;
55686;PMS5003;41911;52.362;4.978;2022-09-13T00:24:24;26.0;26.0;
55686;PMS5003;41911;52.362;4.978;2022-09-13T00:24:55;30.0;28.0;
55686;PMS5003;41911;52.362;4.978;2022-09-13T00:25:26;34.0;34.0;
55686;PMS5003;41911;52.362;4.978;2022-09-13T00:26:01;30.0;29.0;
55686;PMS5003;41911;52.362;4.978;2022-09-13T00:26:35;34.0;33.0;
55686;PMS5003;41911;52.362;4.978;2022-09-13T00:27:06;31.0;30.0;
55686;PMS5003;41911;52.362;4.978;2022-09-13T00:27:42;29.0;28.0;
55686;PMS5003;41911;52.362;4.978;2022-09-13T00:28:13;33.0;32.0;
55686;PMS5003;41911;52.362;4.978;2022-09-13T00:28:44;27.0;27.0;
55686;PMS5003;41911;52.362;4.978;2022-09-13T00:29:20;31.0;29.0;
55686;PMS5003;41911;52.362;4.978;2022-09-13T00:29:52;32.0;31.0;
55686;PMS5003;41911;52.362;4.978;2022-09-13T00:30:22;31.0;31.0;
55686;PMS5003;41911;52.362;4.978;2022-09-13T00:30:53;33.0;31.0;
55686;PMS5003;41911;52.362;4.978;2022-09-13T00:31:59;32.0;31.0;
55686;PMS5003;41911;52.362;4.978;2022-09-13T00:32:30;30.0;30.0;
55686;PMS5003;41911;52.362;4.978;2022-09-13T00:33:02;32.0;30.0;
55686;PMS5003;41911;52.362;4.978;2022-09-13T00:33:34;33.0;31.0;
55686;PMS5003;41911;52.362;4.978;2022-09-13T00:34:07;34.0;33.0;
55686;PMS5003;41911;52.362;4.978;2022-09-13T00:34:39;31.0;30.0;
55686;PMS5003;41911;52.362;4.978;2022-09-13T00:35:10;38.0;37.0;
55686;PMS5003;41911;52.362;4.978;2022-09-13T00:35:41;36.0;34.0;
55686;PMS5003;41911;52.362;4.978;2022-09-13T00:36:12;32.0;31.0;
55686;PMS5003;41911;52.362;4.978;2022-09-13T00:36:43;34.0;30.0;
55686;PMS5003;41911;52.362;4.978;2022-09-13T00:37:15;33.0;31.0;
55686;PMS5003;41911;52.362;4.978;2022-09-13T00:37:46;35.0;34.0;
55686;PMS5003;41911;52.362;4.978;2022-09-13T00:38:17;32.0;31.0;
55686;PMS5003;41911;52.362;4.978;2022-09-13T00:38:48;31.0;31.0;
55686;PMS5003;41911;52.362;4.978;2022-09-13T00:39:19;31.0;31.0;
55686;PMS5003;41911;52.362;4.978;2022-09-13T00:39:50;34.0;33.0;
55686;PMS5003;41911;52.362;4.978;2022-09-13T00:40:21;30.0;26.0;
55686;PMS5003;41911;52.362;4.978;2022-09-13T00:40:52;37.0;35.0;
55686;PMS5003;41911;52.362;4.978;2022-09-13T00:41:23;32.0;30.0;
55686;PMS5003;41911;52.362;4.978;2022-09-13T00:41:54;30.0;30.0;
55686;PMS5003;41911;52.362;4.978;2022-09-13T00:42:26;28.0;27.0;
55686;PMS5003;41911;52.362;4.978;2022-09-13T00:42:58;33.0;30.0;
55686;PMS5003;41911;52.362;4.978;2022-09-13T00:43:39;26.0;26.0;
55686;PMS5003;41911;52.362;4.978;2022-09-13T00:44:49;27.0;26.0;
55686;PMS5003;41911;52.362;4.978;2022-09-13T00:45:23;28.0;28.0;
55686;PMS5003;41911;52.362;4.978;2022-09-13T00:45:54;29.0;28.0;
55686;PMS5003;41911;52.362;4.978;2022-09-13T00:46:27;28.0;27.0;
55686;PMS5003;41911;52.362;4.978;2022-09-13T00:47:04;30.0;27.0;
55686;PMS5003;41911;52.362;4.978;2022-09-13T00:47:36;30.0;30.0;
55686;PMS5003;41911;52.362;4.978;2022-09-13T00:48:15;27.0;27.0;
55686;PMS5003;41911;52.362;4.978;2022-09-13T00:48:48;32.0;32.0;
55686;PMS5003;41911;52.362;4.978;2022-09-13T00:49:23;33.0;32.0;
55686;PMS5003;41911;52.362;4.978;2022-09-13T00:50:04;29.0;28.0;
55686;PMS5003;41911;52.362;4.978;2022-09-13T00:50:45;29.0;27.0;
55686;PMS5003;41911;52.362;4.978;2022-09-13T00:51:22;29.0;29.0;
55686;PMS5003;41911;52.362;4.978;2022-09-13T00:51:56;29.0;29.0;
55686;PMS5003;41911;52.362;4.978;2022-09-13T00:52:33;31.0;27.0;
55686;PMS5003;41911;52.362;4.978;2022-09-13T00:53:12;28.0;27.0;
55686;PMS5003;41911;52.362;4.978;2022-09-13T00:53:47;29.0;27.0;
55686;PMS5003;41911;52.362;4.978;2022-09-13T00:54:25;33.0;32.0;
55686;PMS5003;41911;52.362;4.978;2022-09-13T00:54:59;27.0;26.0;
55686;PMS5003;41911;52.362;4.978;2022-09-13T00:55:37;27.0;26.0;
55686;PMS5003;41911;52.362;4.978;2022-09-13T00:56:13;33.0;32.0;
55686;PMS5003;41911;52.362;4.978;2022-09-13T00:56:49;28.0;27.0;
55686;PMS5003;41911;52.362;4.978;2022-09-13T00:57:23;27.0;26.0;
55686;PMS5003;41911;52.362;4.978;2022-09-13T00:57:57;28.0;27.0;
55686;PMS5003;41911;52.362;4.978;2022-09-13T00:58:33;31.0;29.0;
55686;PMS5003;41911;52.362;4.978;2022-09-13T00:59:08;28.0;28.0;
55686;PMS5003;41911;52.362;4.978;2022-09-13T00:59:43;31.0;31.0;
55686;PMS5003;41911;52.362;4.978;2022-09-13T01:00:21;28.0;28.0;
55686;PMS5003;41911;52.362;4.978;2022-09-13T01:00:52;27.0;25.0;
55686;PMS5003;41911;52.362;4.978;2022-09-13T01:01:27;31.0;29.0;
55686;PMS5003;41911;52.362;4.978;2022-09-13T01:02:02;31.0;31.0;
55686;PMS5003;41911;52.362;4.978;2022-09-13T01:02:34;29.0;29.0;
55686;PMS5003;41911;52.362;4.978;2022-09-13T01:03:08;25.0;25.0;
55686;PMS5003;41911;52.362;4.978;2022-09-13T01:03:45;30.0;29.0;
55686;PMS5003;41911;52.362;4.978;2022-09-13T01:04:18;28.0;26.0;
55686;PMS5003;41911;52.362;4.978;2022-09-13T01:04:51;31.0;31.0;
55686;PMS5003;41911;52.362;4.978;2022-09-13T01:05:23;28.0;27.0;
55686;PMS5003;41911;52.362;4.978;2022-09-13T01:05:59;26.0;25.0;
55686;PMS5003;41911;52.362;4.978;2022-09-13T01:06:32;25.0;24.0;
55686;PMS5003;41911;52.362;4.978;2022-09-13T01:07:10;29.0;27.0;
55686;PMS5003;41911;52.362;4.978;2022-09-13T01:07:44;28.0;27.0;
55686;PMS5003;41911;52.362;4.978;2022-09-13T01:08:16;30.0;28.0;
55686;PMS5003;41911;52.362;4.978;2022-09-13T01:08:48;27.0;27.0;
55686;PMS5003;41911;52.362;4.978;2022-09-13T01:09:21;24.0;23.0;
55686;PMS5003;41911;52.362;4.978;2022-09-13T01:09:53;23.0;23.0;
55686;PMS5003;41911;52.362;4.978;2022-09-13T01:10:24;26.0;25.0;
55686;PMS5003;41911;52.362;4.978;2022-09-13T01:10:57;23.0;23.0;
55686;PMS5003;41911;52.362;4.978;2022-09-13T01:11:31;28.0;25.0;
55686;PMS5003;41911;52.362;4.978;2022-09-13T01:12:12;29.0;26.0;
55686;PMS5003;41911;52.362;4.978;2022-09-13T01:12:54;25.0;25.0;
55686;PMS5003;41911;52.362;4.978;2022-09-13T01:13:36;25.0;24.0;
55686;PMS5003;41911;52.362;4.978;2022-09-13T01:14:09;26.0;25.0;
55686;PMS5003;41911;52.362;4.978;2022-09-13T01:14:40;23.0;23.0;
55686;PMS5003;41911;52.362;4.978;2022-09-13T01:15:13;20.0;20.0;
55686;PMS5003;41911;52.362;4.978;2022-09-13T01:15:44;21.0;21.0;
55686;PMS5003;41911;52.362;4.978;2022-09-13T01:16:15;22.0;21.0;
55686;PMS5003;41911;52.362;4.978;2022-09-13T01:16:46;23.0;22.0;
55686;PMS5003;41911;52.362;4.978;2022-09-13T01:17:17;22.0;22.0;
55686;PMS5003;41911;52.362;4.978;2022-09-13T01:17:49;24.0;23.0;
55686;PMS5003;41911;52.362;4.978;2022-09-13T01:18:23;24.0;22.0;
55686;PMS5003;41911;52.362;4.978;2022-09-13T01:18:55;22.0;21.0;
55686;PMS5003;41911;52.362;4.978;2022-09-13T01:19:26;26.0;25.0;
55686;PMS5003;41911;52.362;4.978;2022-09-13T01:19:57;28.0;25.0;
55686;PMS5003;41911;52.362;4.978;2022-09-13T01:20:32;24.0;23.0;
55686;PMS5003;41911;52.362;4.978;2022-09-13T01:21:33;25.0;25.0;
55686;PMS5003;41911;52.362;4.978;2022-09-13T01:22:34;27.0;25.0;
55686;PMS5003;41911;52.362;4.978;2022-09-13T01:23:39;21.0;21.0;
55686;PMS5003;41911;52.362;4.978;2022-09-13T01:24:35;23.0;23.0;
55686;PMS5003;41911;52.362;4.978;2022-09-13T01:25:34;26.0;23.0;
55686;PMS5003;41911;52.362;4.978;2022-09-13T01:27:40;21.0;21.0;
55686;PMS5003;41911;52.362;4.978;2022-09-13T01:28:34;20.0;19.0;
55686;PMS5003;41911;52.362;4.978;2022-09-13T01:29:36;29.0;26.0;
55686;PMS5003;41911;52.362;4.978;2022-09-13T01:30:31;18.0;18.0;
55686;PMS5003;41911;52.362;4.978;2022-09-13T01:31:08;24.0;21.0;
55686;PMS5003;41911;52.362;4.978;2022-09-13T01:31:51;20.0;19.0;
55686;PMS5003;41911;52.362;4.978;2022-09-13T01:32:32;22.0;22.0;
55686;PMS5003;41911;52.362;4.978;2022-09-13T01:33:24;24.0;24.0;
55686;PMS5003;41911;52.362;4.978;2022-09-13T01:34:15;25.0;24.0;
55686;PMS5003;41911;52.362;4.978;2022-09-13T01:34:58;25.0;24.0;
55686;PMS5003;41911;52.362;4.978;2022-09-13T01:35:49;22.0;21.0;
55686;PMS5003;41911;52.362;4.978;2022-09-13T01:36:39;19.0;18.0;
55686;PMS5003;41911;52.362;4.978;2022-09-13T01:37:28;24.0;23.0;
55686;PMS5003;41911;52.362;4.978;2022-09-13T01:38:12;22.0;22.0;
55686;PMS5003;41911;52.362;4.978;2022-09-13T01:39:00;22.0;21.0;
55686;PMS5003;41911;52.362;4.978;2022-09-13T01:39:41;20.0;20.0;
55686;PMS5003;41911;52.362;4.978;2022-09-13T01:40:34;24.0;23.0;
55686;PMS5003;41911;52.362;4.978;2022-09-13T01:41:20;26.0;25.0;
55686;PMS5003;41911;52.362;4.978;2022-09-13T01:42:08;26.0;24.0;
55686;PMS5003;41911;52.362;4.978;2022-09-13T01:42:51;18.0;18.0;
55686;PMS5003;41911;52.362;4.978;2022-09-13T01:43:43;21.0;20.0;
55686;PMS5003;41911;52.362;4.978;2022-09-13T01:44:28;21.0;20.0;
55686;PMS5003;41911;52.362;4.978;2022-09-13T01:45:13;19.0;18.0;
55686;PMS5003;41911;52.362;4.978;2022-09-13T01:45:53;25.0;25.0;
55686;PMS5003;41911;52.362;4.978;2022-09-13T01:46:31;22.0;22.0;
55686;PMS5003;41911;52.362;4.978;2022-09-13T01:47:11;24.0;23.0;
55686;PMS5003;41911;52.362;4.978;2022-09-13T01:47:51;24.0;23.0;
55686;PMS5003;41911;52.362;4.978;2022-09-13T01:48:31;21.0;21.0;
55686;PMS5003;41911;52.362;4.978;2022-09-13T01:49:15;25.0;24.0;
55686;PMS5003;41911;52.362;4.978;2022-09-13T01:49:58;23.0;23.0;
55686;PMS5003;41911;52.362;4.978;2022-09-13T01:50:45;22.0;21.0;
55686;PMS5003;41911;52.362;4.978;2022-09-13T01:51:26;26.0;24.0;
55686;PMS5003;41911;52.362;4.978;2022-09-13T01:52:09;21.0;20.0;
55686;PMS5003;41911;52.362;4.978;2022-09-13T01:52:49;26.0;24.0;
55686;PMS5003;41911;52.362;4.978;2022-09-13T01:53:28;25.0;24.0;
55686;PMS5003;41911;52.362;4.978;2022-09-13T01:54:12;21.0;20.0;
55686;PMS5003;41911;52.362;4.978;2022-09-13T01:54:50;25.0;25.0;
55686;PMS5003;41911;52.362;4.978;2022-09-13T01:55:29;23.0;22.0;
55686;PMS5003;41911;52.362;4.978;2022-09-13T01:56:09;22.0;22.0;
55686;PMS5003;41911;52.362;4.978;2022-09-13T01:56:53;23.0;23.0;
55686;PMS5003;41911;52.362;4.978;2022-09-13T01:57:31;22.0;20.0;
55686;PMS5003;41911;52.362;4.978;2022-09-13T01:58:09;21.0;19.0;
55686;PMS5003;41911;52.362;4.978;2022-09-13T01:58:52;21.0;20.0;
55686;PMS5003;41911;52.362;4.978;2022-09-13T01:59:32;20.0;19.0;
55686;PMS5003;41911;52.362;4.978;2022-09-13T02:00:09;24.0;23.0;
55686;PMS5003;41911;52.362;4.978;2022-09-13T02:00:43;19.0;19.0;
55686;PMS5003;41911;52.362;4.978;2022-09-13T02:01:34;18.0;18.0;
55686;PMS5003;41911;52.362;4.978;2022-09-13T02:02:20;19.0;19.0;
55686;PMS5003;41911;52.362;4.978;2022-09-13T02:03:04;22.0;22.0;
55686;PMS5003;41911;52.362;4.978;2022-09-13T02:03:40;23.0;21.0;
55686;PMS5003;41911;52.362;4.978;2022-09-13T02:04:21;25.0;24.0;
55686;PMS5003;41911;52.362;4.978;2022-09-13T02:04:59;21.0;20.0;
55686;PMS5003;41911;52.362;4.978;2022-09-13T02:05:36;22.0;21.0;
55686;PMS5003;41911;52.362;4.978;2022-09-13T02:06:12;21.0;21.0;
55686;PMS5003;41911;52.362;4.978;2022-09-13T02:06:51;19.0;19.0;
55686;PMS5003;41911;52.362;4.978;2022-09-13T02:07:34;26.0;26.0;
55686;PMS5003;41911;52.362;4.978;2022-09-13T02:08:11;21.0;21.0;
55686;PMS5003;41911;52.362;4.978;2022-09-13T02:08:50;20.0;20.0;
55686;PMS5003;41911;52.362;4.978;2022-09-13T02:09:27;21.0;21.0;
55686;PMS5003;41911;52.362;4.978;2022-09-13T02:10:05;21.0;21.0;
55686;PMS5003;41911;52.362;4.978;2022-09-13T02:10:40;20.0;20.0;
55686;PMS5003;41911;52.362;4.978;2022-09-13T02:11:17;23.0;22.0;
55686;PMS5003;41911;52.362;4.978;2022-09-13T02:11:49;20.0;18.0;
55686;PMS5003;41911;52.362;4.978;2022-09-13T02:12:29;22.0;21.0;
55686;PMS5003;41911;52.362;4.978;2022-09-13T02:13:04;22.0;21.0;
55686;PMS5003;41911;52.362;4.978;2022-09-13T02:13:42;27.0;25.0;
55686;PMS5003;41911;52.362;4.978;2022-09-13T02:14:20;26.0;24.0;
55686;PMS5003;41911;52.362;4.978;2022-09-13T02:14:57;20.0;19.0;
55686;PMS5003;41911;52.362;4.978;2022-09-13T02:15:36;21.0;20.0;
55686;PMS5003;41911;52.362;4.978;2022-09-13T02:16:15;21.0;20.0;
55686;PMS5003;41911;52.362;4.978;2022-09-13T02:16:53;22.0;21.0;
55686;PMS5003;41911;52.362;4.978;2022-09-13T02:17:34;22.0;22.0;
55686;PMS5003;41911;52.362;4.978;2022-09-13T02:18:09;24.0;24.0;
55686;PMS5003;41911;52.362;4.978;2022-09-13T02:18:45;21.0;20.0;
55686;PMS5003;41911;52.362;4.978;2022-09-13T02:19:25;20.0;20.0;
55686;PMS5003;41911;52.362;4.978;2022-09-13T02:20:02;21.0;21.0;
55686;PMS5003;41911;52.362;4.978;2022-09-13T02:20:39;20.0;20.0;
55686;PMS5003;41911;52.362;4.978;2022-09-13T02:21:16;21.0;21.0;
55686;PMS5003;41911;52.362;4.978;2022-09-13T02:21:55;22.0;20.0;
55686;PMS5003;41911;52.362;4.978;2022-09-13T02:22:30;20.0;20.0;
55686;PMS5003;41911;52.362;4.978;2022-09-13T02:23:04;24.0;24.0;
55686;PMS5003;41911;52.362;4.978;2022-09-13T02:23:40;22.0;21.0;
55686;PMS5003;41911;52.362;4.978;2022-09-13T02:24:22;21.0;21.0;
55686;PMS5003;41911;52.362;4.978;2022-09-13T02:25:04;23.0;22.0;
55686;PMS5003;41911;52.362;4.978;2022-09-13T02:25:39;21.0;21.0;
55686;PMS5003;41911;52.362;4.978;2022-09-13T02:26:12;21.0;21.0;
55686;PMS5003;41911;52.362;4.978;2022-09-13T02:26:44;24.0;23.0;
55686;PMS5003;41911;52.362;4.978;2022-09-13T02:27:18;21.0;21.0;
55686;PMS5003;41911;52.362;4.978;2022-09-13T02:27:55;21.0;19.0;
55686;PMS5003;41911;52.362;4.978;2022-09-13T02:28:33;23.0;23.0;
55686;PMS5003;41911;52.362;4.978;2022-09-13T02:29:09;23.0;23.0;
55686;PMS5003;41911;52.362;4.978;2022-09-13T02:29:44;22.0;22.0;
55686;PMS5003;41911;52.362;4.978;2022-09-13T02:30:19;25.0;23.0;
55686;PMS5003;41911;52.362;4.978;2022-09-13T02:30:55;22.0;22.0;
55686;PMS5003;41911;52.362;4.978;2022-09-13T02:31:36;21.0;21.0;
55686;PMS5003;41911;52.362;4.978;2022-09-13T02:32:20;25.0;23.0;
55686;PMS5003;41911;52.362;4.978;2022-09-13T02:32:55;25.0;23.0;
55686;PMS5003;41911;52.362;4.978;2022-09-13T02:33:42;25.0;24.0;
55686;PMS5003;41911;52.362;4.978;2022-09-13T02:34:19;22.0;21.0;
55686;PMS5003;41911;52.362;4.978;2022-09-13T02:34:52;22.0;20.0;
55686;PMS5003;41911;52.362;4.978;2022-09-13T02:35:26;22.0;22.0;
55686;PMS5003;41911;52.362;4.978;2022-09-13T02:36:03;28.0;26.0;
55686;PMS5003;41911;52.362;4.978;2022-09-13T02:36:44;22.0;21.0;
55686;PMS5003;41911;52.362;4.978;2022-09-13T02:37:17;23.0;23.0;
55686;PMS5003;41911;52.362;4.978;2022-09-13T02:37:50;23.0;23.0;
55686;PMS5003;41911;52.362;4.978;2022-09-13T02:38:26;23.0;22.0;
55686;PMS5003;41911;52.362;4.978;2022-09-13T02:39:07;22.0;21.0;
55686;PMS5003;41911;52.362;4.978;2022-09-13T02:39:45;25.0;24.0;
55686;PMS5003;41911;52.362;4.978;2022-09-13T02:40:24;27.0;27.0;
55686;PMS5003;41911;52.362;4.978;2022-09-13T02:41:05;28.0;26.0;
55686;PMS5003;41911;52.362;4.978;2022-09-13T02:41:45;24.0;24.0;
55686;PMS5003;41911;52.362;4.978;2022-09-13T02:42:25;23.0;22.0;
55686;PMS5003;41911;52.362;4.978;2022-09-13T02:43:05;23.0;23.0;
55686;PMS5003;41911;52.362;4.978;2022-09-13T02:43:46;23.0;22.0;
55686;PMS5003;41911;52.362;4.978;2022-09-13T02:44:22;22.0;21.0;
55686;PMS5003;41911;52.362;4.978;2022-09-13T02:44:57;26.0;23.0;
55686;PMS5003;41911;52.362;4.978;2022-09-13T02:45:30;27.0;24.0;
55686;PMS5003;41911;52.362;4.978;2022-09-13T02:46:09;26.0;26.0;
55686;PMS5003;41911;52.362;4.978;2022-09-13T02:46:57;21.0;20.0;
55686;PMS5003;41911;52.362;4.978;2022-09-13T02:47:43;25.0;23.0;
55686;PMS5003;41911;52.362;4.978;2022-09-13T02:48:26;25.0;25.0;
55686;PMS5003;41911;52.362;4.978;2022-09-13T02:49:06;22.0;22.0;
55686;PMS5003;41911;52.362;4.978;2022-09-13T02:49:48;24.0;24.0;
55686;PMS5003;41911;52.362;4.978;2022-09-13T02:50:29;23.0;23.0;
55686;PMS5003;41911;52.362;4.978;2022-09-13T02:51:15;23.0;23.0;
55686;PMS5003;41911;52.362;4.978;2022-09-13T02:51:55;26.0;26.0;
55686;PMS5003;41911;52.362;4.978;2022-09-13T02:52:39;30.0;28.0;
55686;PMS5003;41911;52.362;4.978;2022-09-13T02:53:24;21.0;20.0;
55686;PMS5003;41911;52.362;4.978;2022-09-13T02:54:09;24.0;22.0;
55686;PMS5003;41911;52.362;4.978;2022-09-13T02:54:55;25.0;24.0;
55686;PMS5003;41911;52.362;4.978;2022-09-13T02:55:40;24.0;24.0;
55686;PMS5003;41911;52.362;4.978;2022-09-13T02:56:19;24.0;23.0;
55686;PMS5003;41911;52.362;4.978;2022-09-13T02:56:54;26.0;25.0;
55686;PMS5003;41911;52.362;4.978;2022-09-13T02:57:32;28.0;28.0;
55686;PMS5003;41911;52.362;4.978;2022-09-13T02:58:11;27.0;26.0;
55686;PMS5003;41911;52.362;4.978;2022-09-13T02:58:49;27.0;27.0;
55686;PMS5003;41911;52.362;4.978;2022-09-13T02:59:28;30.0;29.0;
55686;PMS5003;41911;52.362;4.978;2022-09-13T02:59:59;24.0;24.0;
55686;PMS5003;41911;52.362;4.978;2022-09-13T03:00:30;24.0;23.0;
55686;PMS5003;41911;52.362;4.978;2022-09-13T03:01:02;24.0;23.0;
55686;PMS5003;41911;52.362;4.978;2022-09-13T03:01:33;22.0;21.0;
55686;PMS5003;41911;52.362;4.978;2022-09-13T03:02:09;33.0;32.0;
55686;PMS5003;41911;52.362;4.978;2022-09-13T03:02:45;23.0;22.0;
55686;PMS5003;41911;52.362;4.978;2022-09-13T03:03:20;23.0;23.0;
55686;PMS5003;41911;52.362;4.978;2022-09-13T03:03:51;29.0;29.0;
55686;PMS5003;41911;52.362;4.978;2022-09-13T03:04:22;28.0;26.0;
55686;PMS5003;41911;52.362;4.978;2022-09-13T03:04:54;25.0;24.0;
55686;PMS5003;41911;52.362;4.978;2022-09-13T03:05:25;26.0;25.0;
55686;PMS5003;41911;52.362;4.978;2022-09-13T03:05:56;26.0;26.0;
55686;PMS5003;41911;52.362;4.978;2022-09-13T03:06:27;29.0;28.0;
55686;PMS5003;41911;52.362;4.978;2022-09-13T03:06:59;28.0;27.0;
55686;PMS5003;41911;52.362;4.978;2022-09-13T03:07:30;25.0;24.0;
55686;PMS5003;41911;52.362;4.978;2022-09-13T03:08:01;29.0;27.0;
55686;PMS5003;41911;52.362;4.978;2022-09-13T03:08:34;28.0;28.0;
55686;PMS5003;41911;52.362;4.978;2022-09-13T03:09:12;30.0;27.0;
55686;PMS5003;41911;52.362;4.978;2022-09-13T03:09:45;26.0;26.0;
55686;PMS5003;41911;52.362;4.978;2022-09-13T03:10:18;30.0;30.0;
55686;PMS5003;41911;52.362;4.978;2022-09-13T03:10:53;31.0;30.0;
55686;PMS5003;41911;52.362;4.978;2022-09-13T03:11:39;25.0;24.0;
55686;PMS5003;41911;52.362;4.978;2022-09-13T03:12:28;28.0;27.0;
55686;PMS5003;41911;52.362;4.978;2022-09-13T03:13:26;23.0;23.0;
55686;PMS5003;41911;52.362;4.978;2022-09-13T03:14:15;29.0;25.0;
55686;PMS5003;41911;52.362;4.978;2022-09-13T03:14:55;26.0;26.0;
55686;PMS5003;41911;52.362;4.978;2022-09-13T03:15:44;29.0;28.0;
55686;PMS5003;41911;52.362;4.978;2022-09-13T03:16:35;25.0;22.0;
55686;PMS5003;41911;52.362;4.978;2022-09-13T03:17:31;27.0;26.0;
55686;PMS5003;41911;52.362;4.978;2022-09-13T03:18:16;27.0;25.0;
55686;PMS5003;41911;52.362;4.978;2022-09-13T03:19:06;24.0;24.0;
55686;PMS5003;41911;52.362;4.978;2022-09-13T03:19:59;29.0;27.0;
55686;PMS5003;41911;52.362;4.978;2022-09-13T03:20:40;26.0;25.0;
55686;PMS5003;41911;52.362;4.978;2022-09-13T03:21:22;30.0;29.0;
55686;PMS5003;41911;52.362;4.978;2022-09-13T03:22:14;25.0;25.0;
55686;PMS5003;41911;52.362;4.978;2022-09-13T03:23:05;23.0;23.0;
55686;PMS5003;41911;52.362;4.978;2022-09-13T03:23:53;28.0;27.0;
55686;PMS5003;41911;52.362;4.978;2022-09-13T03:24:34;30.0;29.0;
55686;PMS5003;41911;52.362;4.978;2022-09-13T03:25:23;35.0;31.0;
55686;PMS5003;41911;52.362;4.978;2022-09-13T03:26:05;25.0;23.0;
55686;PMS5003;41911;52.362;4.978;2022-09-13T03:26:54;27.0;24.0;
55686;PMS5003;41911;52.362;4.978;2022-09-13T03:27:44;24.0;23.0;
55686;PMS5003;41911;52.362;4.978;2022-09-13T03:28:33;26.0;25.0;
55686;PMS5003;41911;52.362;4.978;2022-09-13T03:29:16;25.0;25.0;
55686;PMS5003;41911;52.362;4.978;2022-09-13T03:29:57;25.0;24.0;
55686;PMS5003;41911;52.362;4.978;2022-09-13T03:30:34;27.0;26.0;
55686;PMS5003;41911;52.362;4.978;2022-09-13T03:31:11;27.0;25.0;
55686;PMS5003;41911;52.362;4.978;2022-09-13T03:31:50;23.0;23.0;
55686;PMS5003;41911;52.362;4.978;2022-09-13T03:32:34;30.0;28.0;
55686;PMS5003;41911;52.362;4.978;2022-09-13T03:33:15;31.0;31.0;
55686;PMS5003;41911;52.362;4.978;2022-09-13T03:34:02;24.0;22.0;
55686;PMS5003;41911;52.362;4.978;2022-09-13T03:34:41;26.0;25.0;
55686;PMS5003;41911;52.362;4.978;2022-09-13T03:35:21;25.0;24.0;
55686;PMS5003;41911;52.362;4.978;2022-09-13T03:35:59;26.0;26.0;
55686;PMS5003;41911;52.362;4.978;2022-09-13T03:36:41;23.0;22.0;
55686;PMS5003;41911;52.362;4.978;2022-09-13T03:37:21;24.0;23.0;
55686;PMS5003;41911;52.362;4.978;2022-09-13T03:38:01;25.0;24.0;
55686;PMS5003;41911;52.362;4.978;2022-09-13T03:38:38;28.0;26.0;
55686;PMS5003;41911;52.362;4.978;2022-09-13T03:39:16;23.0;23.0;
55686;PMS5003;41911;52.362;4.978;2022-09-13T03:39:59;23.0;22.0;
55686;PMS5003;41911;52.362;4.978;2022-09-13T03:40:35;27.0;24.0;
55686;PMS5003;41911;52.362;4.978;2022-09-13T03:41:14;27.0;26.0;
55686;PMS5003;41911;52.362;4.978;2022-09-13T03:41:53;24.0;22.0;
55686;PMS5003;41911;52.362;4.978;2022-09-13T03:42:30;30.0;29.0;
55686;PMS5003;41911;52.362;4.978;2022-09-13T03:43:09;26.0;26.0;
55686;PMS5003;41911;52.362;4.978;2022-09-13T03:43:53;25.0;25.0;
55686;PMS5003;41911;52.362;4.978;2022-09-13T03:44:30;30.0;30.0;
55686;PMS5003;41911;52.362;4.978;2022-09-13T03:45:14;30.0;29.0;
55686;PMS5003;41911;52.362;4.978;2022-09-13T03:45:49;35.0;33.0;
55686;PMS5003;41911;52.362;4.978;2022-09-13T03:46:25;25.0;25.0;
55686;PMS5003;41911;52.362;4.978;2022-09-13T03:47:02;26.0;26.0;
55686;PMS5003;41911;52.362;4.978;2022-09-13T03:47:35;25.0;24.0;
55686;PMS5003;41911;52.362;4.978;2022-09-13T03:48:10;26.0;25.0;
55686;PMS5003;41911;52.362;4.978;2022-09-13T03:48:41;31.0;31.0;
55686;PMS5003;41911;52.362;4.978;2022-09-13T03:49:15;22.0;22.0;
55686;PMS5003;41911;52.362;4.978;2022-09-13T03:49:48;25.0;24.0;
55686;PMS5003;41911;52.362;4.978;2022-09-13T03:50:21;30.0;28.0;
55686;PMS5003;41911;52.362;4.978;2022-09-13T03:50:54;28.0;26.0;
55686;PMS5003;41911;52.362;4.978;2022-09-13T03:51:31;26.0;26.0;
55686;PMS5003;41911;52.362;4.978;2022-09-13T03:52:02;25.0;24.0;
55686;PMS5003;41911;52.362;4.978;2022-09-13T03:52:42;25.0;25.0;
55686;PMS5003;41911;52.362;4.978;2022-09-13T03:53:17;24.0;24.0;
55686;PMS5003;41911;52.362;4.978;2022-09-13T03:53:55;28.0;28.0;
55686;PMS5003;41911;52.362;4.978;2022-09-13T03:54:31;30.0;30.0;
55686;PMS5003;41911;52.362;4.978;2022-09-13T03:55:05;27.0;26.0;
55686;PMS5003;41911;52.362;4.978;2022-09-13T03:55:38;26.0;25.0;
55686;PMS5003;41911;52.362;4.978;2022-09-13T03:56:12;25.0;25.0;
55686;PMS5003;41911;52.362;4.978;2022-09-13T03:57:04;27.0;25.0;